createdAt,value
2023-04-28T00:01:19.271Z,56.43
2023-04-28T00:03:47.190Z,51.27
2023-04-28T00:06:15.110Z,51.37
2023-04-28T00:08:42.465Z,55.73
2023-04-28T00:11:10.461Z,51.23
2023-04-28T00:13:38.279Z,53.63
2023-04-28T00:16:06.027Z,54.17
2023-04-28T00:18:33.782Z,54.43
2023-04-28T00:21:02.107Z,59.63
2023-04-28T00:23:29.490Z,65.90
2023-04-28T00:25:57.632Z,63.07
2023-04-28T00:30:55.616Z,57.17
2023-04-28T00:33:22.976Z,58.50
2023-04-28T00:35:50.546Z,65.17
2023-04-28T00:38:17.912Z,59.53
2023-04-28T00:40:45.460Z,58.13
2023-04-28T00:43:12.813Z,59.03
2023-04-28T00:45:40.281Z,55.53
2023-04-28T00:48:08.600Z,64.60
2023-04-28T00:50:36.116Z,58.10
2023-04-28T00:53:03.715Z,53.80
2023-04-28T00:55:33.986Z,57.00
2023-04-28T00:58:01.441Z,55.10
2023-04-28T01:00:28.966Z,54.20
2023-04-28T01:02:57.408Z,58.40
2023-04-28T01:05:30.037Z,59.97
2023-04-28T01:07:57.970Z,69.13
2023-04-28T01:10:25.547Z,75.93
2023-04-28T01:12:53.866Z,68.23
2023-04-28T01:15:22.042Z,63.60
2023-04-28T01:17:52.544Z,59.60
2023-04-28T01:20:20.146Z,61.43
2023-04-28T01:22:48.139Z,62.97
2023-04-28T01:25:15.831Z,64.87
2023-04-28T01:27:43.224Z,62.23
2023-04-28T01:30:10.970Z,62.10
2023-04-28T01:32:38.408Z,58.60
2023-04-28T01:35:06.113Z,57.47
2023-04-28T01:37:36.023Z,58.57
2023-04-28T01:40:04.068Z,57.50
2023-04-28T01:42:31.953Z,62.90
2023-04-28T01:45:03.550Z,57.23
2023-04-28T01:47:31.106Z,59.97
2023-04-28T01:49:58.545Z,58.80
2023-04-28T01:52:27.406Z,58.50
2023-04-28T01:54:55.547Z,60.07
2023-04-28T01:57:22.887Z,56.67
2023-04-28T01:59:51.634Z,59.40
2023-04-28T02:02:19.100Z,57.70
2023-04-28T02:04:46.495Z,59.07
2023-04-28T02:07:14.111Z,58.43
2023-04-28T02:09:42.282Z,60.00
2023-04-28T02:12:09.653Z,58.07
2023-04-28T02:14:37.123Z,59.00
2023-04-28T02:17:05.592Z,62.87
2023-04-28T02:19:34.014Z,63.40
2023-04-28T02:22:01.547Z,61.70
2023-04-28T02:24:28.967Z,62.27
2023-04-28T02:26:59.008Z,57.53
2023-04-28T02:29:28.620Z,61.87
2023-04-28T02:31:58.534Z,61.73
2023-04-28T02:34:26.048Z,59.97
2023-04-28T02:36:53.447Z,64.10
2023-04-28T02:39:22.684Z,62.83
2023-04-28T02:41:50.210Z,60.73
2023-04-28T02:44:17.717Z,65.80
2023-04-28T02:46:45.448Z,59.50
2023-04-28T02:49:13.293Z,61.30
2023-04-28T02:51:41.313Z,61.80
2023-04-28T02:54:08.950Z,63.90
2023-04-28T02:56:37.270Z,62.77
2023-04-28T02:59:05.492Z,65.67
2023-04-28T03:01:32.858Z,60.70
2023-04-28T03:04:00.351Z,58.00
2023-04-28T03:06:28.412Z,67.97
2023-04-28T03:08:55.934Z,64.03
2023-04-28T03:11:23.243Z,65.80
2023-04-28T03:13:50.608Z,68.90
2023-04-28T03:16:18.228Z,60.90
2023-04-28T03:18:45.680Z,69.97
2023-04-28T03:21:13.154Z,73.30
2023-04-28T03:23:40.593Z,66.03
2023-04-28T03:26:08.631Z,62.97
2023-04-28T03:28:36.454Z,66.13
2023-04-28T03:31:03.878Z,69.47
2023-04-28T03:33:31.758Z,67.77
2023-04-28T03:36:00.622Z,67.20
2023-04-28T03:38:28.138Z,65.23
2023-04-28T03:40:55.746Z,73.40
2023-04-28T03:43:33.233Z,71.53
2023-04-28T03:46:12.931Z,68.40
2023-04-28T03:48:40.468Z,72.00
2023-04-28T03:51:07.905Z,70.67
2023-04-28T03:53:35.366Z,68.00
2023-04-28T03:56:02.777Z,68.83
2023-04-28T03:58:30.173Z,70.20
2023-04-28T04:00:57.684Z,73.40
2023-04-28T04:03:27.180Z,68.60
2023-04-28T04:05:56.641Z,74.10
2023-04-28T04:08:24.347Z,69.83
2023-04-28T04:10:52.756Z,65.00
2023-04-28T04:13:20.390Z,66.20
2023-04-28T04:15:48.143Z,67.37
2023-04-28T04:18:16.416Z,75.80
2023-04-28T04:21:02.369Z,65.03
2023-04-28T04:23:30.103Z,69.70
2023-04-28T04:25:57.504Z,70.60
2023-04-28T04:28:25.094Z,75.47
2023-04-28T04:30:52.870Z,71.70
2023-04-28T04:33:20.285Z,75.00
2023-04-28T04:35:47.883Z,71.30
2023-04-28T04:38:15.313Z,69.17
2023-04-28T04:40:43.354Z,67.10
2023-04-28T04:43:10.786Z,65.90
2023-04-28T04:45:44.691Z,67.10
2023-04-28T04:48:15.484Z,63.00
2023-04-28T04:50:43.803Z,58.80
2023-04-28T04:53:14.626Z,58.40
2023-04-28T04:55:44.404Z,49.00
2023-04-28T04:58:11.822Z,42.35
2023-04-28T05:01:02.506Z,39.33
2023-04-28T05:03:30.253Z,40.95
2023-04-28T05:05:58.026Z,38.38
2023-04-28T05:08:34.771Z,39.40
2023-04-28T05:11:03.152Z,39.13
2023-04-28T05:13:30.915Z,40.90
2023-04-28T05:16:02.231Z,36.92
2023-04-28T05:18:50.097Z,35.63
2023-04-28T05:21:17.529Z,36.38
2023-04-28T05:23:44.946Z,37.80
2023-04-28T05:26:12.576Z,28.33
2023-04-28T05:28:42.076Z,25.33
2023-04-28T05:31:10.081Z,30.58
2023-04-28T05:33:38.378Z,32.10
2023-04-28T05:36:06.032Z,36.55
2023-04-28T05:38:33.978Z,42.42
2023-04-28T05:41:02.245Z,43.80
2023-04-28T05:43:30.016Z,44.33
2023-04-28T05:45:57.864Z,45.28
2023-04-28T05:48:26.318Z,40.88
2023-04-28T05:50:54.911Z,38.58
2023-04-28T05:53:22.416Z,40.40
2023-04-28T05:55:51.338Z,49.92
2023-04-28T05:58:19.204Z,38.35
2023-04-28T06:00:46.982Z,37.15
2023-04-28T06:03:19.061Z,36.42
2023-04-28T06:05:47.667Z,39.20
2023-04-28T06:08:16.139Z,36.53
2023-04-28T06:10:43.653Z,36.15
2023-04-28T06:13:12.215Z,32.70
2023-04-28T06:15:42.500Z,34.67
2023-04-28T06:18:11.239Z,32.58
2023-04-28T06:20:38.718Z,28.92
2023-04-28T06:23:06.928Z,34.22
2023-04-28T06:25:34.650Z,31.15
2023-04-28T06:28:02.152Z,32.03
2023-04-28T06:30:29.624Z,31.17
2023-04-28T06:32:58.007Z,25.30
2023-04-28T06:35:25.640Z,26.30
2023-04-28T06:37:53.110Z,27.98
2023-04-28T06:40:21.256Z,29.40
2023-04-28T06:42:53.361Z,25.88
2023-04-28T06:45:25.264Z,25.30
2023-04-28T06:47:55.907Z,24.98
2023-04-28T06:50:24.517Z,25.17
2023-04-28T06:52:52.321Z,22.10
2023-04-28T06:55:19.755Z,25.60
2023-04-28T06:57:47.419Z,24.83
2023-04-28T07:00:14.972Z,19.00
2023-04-28T07:02:42.629Z,17.42
2023-04-28T07:05:10.759Z,21.42
2023-04-28T07:07:39.169Z,19.13
2023-04-28T07:10:07.117Z,13.88
2023-04-28T07:12:34.583Z,17.80
2023-04-28T07:15:01.928Z,17.88
2023-04-28T07:17:29.427Z,17.95
2023-04-28T07:19:56.840Z,13.57
2023-04-28T07:22:24.365Z,11.68
2023-04-28T07:24:51.821Z,12.43
2023-04-28T07:27:19.491Z,12.35
2023-04-28T07:29:47.089Z,11.98
2023-04-28T07:32:14.684Z,12.02
2023-04-28T07:34:42.199Z,12.52
2023-04-28T07:37:09.853Z,14.45
2023-04-28T07:39:39.302Z,15.20
2023-04-28T07:42:06.685Z,7.18
2023-04-28T07:44:34.088Z,12.50
2023-04-28T07:47:02.112Z,8.00
2023-04-28T07:49:29.657Z,9.00
2023-04-28T07:51:57.373Z,9.40
2023-04-28T07:54:24.804Z,6.70
2023-04-28T07:56:52.257Z,12.18
2023-04-28T07:59:19.675Z,9.90
2023-04-28T08:01:47.098Z,11.07
2023-04-28T08:04:15.186Z,8.35
2023-04-28T08:06:43.022Z,10.77
2023-04-28T08:09:10.661Z,11.00
2023-04-28T08:11:38.229Z,9.57
2023-04-28T08:14:05.641Z,9.88
2023-04-28T08:16:34.560Z,11.82
2023-04-28T08:19:02.141Z,8.73
2023-04-28T08:21:29.636Z,8.77
2023-04-28T08:23:57.060Z,9.70
2023-04-28T08:26:24.833Z,9.40
2023-04-28T08:28:52.396Z,7.05
2023-04-28T08:31:20.001Z,8.82
2023-04-28T08:33:50.206Z,9.52
2023-04-28T08:36:18.379Z,8.80
2023-04-28T08:38:46.099Z,7.90
2023-04-28T08:41:17.257Z,9.75
2023-04-28T08:43:45.682Z,9.40
2023-04-28T08:46:15.639Z,8.10
2023-04-28T08:48:45.281Z,8.93
2023-04-28T08:51:16.960Z,11.20
2023-04-28T08:54:11.779Z,7.53
2023-04-28T08:56:34.951Z,9.55
2023-04-28T08:59:05.854Z,7.50
2023-04-28T09:01:33.530Z,7.60
2023-04-28T09:04:04.456Z,10.20
2023-04-28T09:06:36.214Z,9.80
2023-04-28T09:09:20.297Z,8.10
2023-04-28T09:11:56.620Z,8.90
2023-04-28T09:14:24.550Z,10.57
2023-04-28T09:16:52.441Z,12.55
2023-04-28T09:19:20.315Z,10.85
2023-04-28T09:21:49.539Z,8.50
2023-04-28T09:24:28.846Z,14.13
2023-04-28T09:26:56.513Z,9.52
2023-04-28T09:29:24.337Z,10.18
2023-04-28T09:31:51.794Z,9.23
2023-04-28T09:34:19.378Z,11.32
2023-04-28T09:36:46.808Z,10.18
2023-04-28T09:39:14.321Z,7.53
2023-04-28T09:41:42.865Z,8.18
2023-04-28T09:44:19.247Z,6.85
2023-04-28T09:46:47.466Z,8.02
2023-04-28T09:49:15.600Z,9.10
2023-04-28T09:51:43.007Z,11.65
2023-04-28T09:54:11.386Z,8.50
2023-04-28T09:56:42.277Z,8.88
2023-04-28T09:59:09.738Z,11.68
2023-04-28T10:01:42.089Z,12.60
2023-04-28T10:04:12.161Z,11.32
2023-04-28T10:06:40.496Z,12.35
2023-04-28T10:09:08.549Z,9.70
2023-04-28T10:11:36.063Z,9.18
2023-04-28T10:14:03.528Z,9.80
2023-04-28T10:16:33.270Z,11.82
2023-04-28T10:19:02.554Z,7.65
2023-04-28T10:21:30.492Z,10.57
2023-04-28T10:24:00.699Z,9.63
2023-04-28T10:26:54.516Z,8.63
2023-04-28T10:29:25.960Z,11.57
2023-04-28T10:32:29.938Z,9.85
2023-04-28T10:35:16.277Z,9.15
2023-04-28T10:38:12.809Z,9.88
2023-04-28T10:41:02.965Z,9.40
2023-04-28T10:43:31.080Z,9.90
2023-04-28T10:46:01.833Z,12.18
2023-04-28T10:48:37.058Z,11.43
2023-04-28T10:51:12.987Z,11.38
2023-04-28T10:53:47.440Z,9.27
2023-04-28T10:56:16.777Z,11.30
2023-04-28T10:58:49.090Z,13.95
2023-04-28T11:01:24.370Z,9.02
2023-04-28T11:03:54.272Z,13.95
2023-04-28T11:06:28.882Z,12.05
2023-04-28T11:08:57.933Z,13.60
2023-04-28T11:11:39.199Z,9.90
2023-04-28T11:14:12.384Z,11.93
2023-04-28T11:16:54.222Z,9.40
2023-04-28T11:19:23.312Z,10.95
2023-04-28T11:21:51.271Z,12.43
2023-04-28T11:24:18.719Z,11.75
2023-04-28T11:26:46.200Z,9.40
2023-04-28T11:29:15.127Z,8.90
2023-04-28T11:31:50.997Z,9.63
2023-04-28T11:34:22.303Z,11.70
2023-04-28T11:36:49.785Z,9.43
2023-04-28T11:39:17.184Z,9.70
2023-04-28T11:41:45.907Z,11.35
2023-04-28T11:44:17.290Z,12.52
2023-04-28T11:47:01.253Z,9.07
2023-04-28T11:49:30.813Z,10.07
2023-04-28T11:52:00.534Z,8.77
2023-04-28T11:54:29.315Z,14.27
2023-04-28T11:56:57.843Z,9.25
2023-04-28T11:59:25.488Z,9.48
2023-04-28T12:01:54.510Z,11.70
2023-04-28T12:04:29.124Z,8.45
2023-04-28T12:07:03.791Z,8.20
2023-04-28T12:09:31.639Z,10.65
2023-04-28T12:12:02.275Z,12.50
2023-04-28T12:14:30.667Z,12.93
2023-04-28T12:16:58.562Z,11.88
2023-04-28T12:19:26.234Z,10.35
2023-04-28T12:22:01.203Z,10.38
2023-04-28T12:24:29.037Z,7.88
2023-04-28T12:27:14.831Z,8.23
2023-04-28T12:29:43.268Z,9.27
2023-04-28T12:32:11.761Z,11.10
2023-04-28T12:34:40.357Z,9.02
2023-04-28T12:37:07.906Z,9.40
2023-04-28T12:39:40.774Z,14.23
2023-04-28T12:42:08.563Z,10.18
2023-04-28T12:44:36.739Z,8.15
2023-04-28T12:47:04.818Z,9.00
2023-04-28T12:49:32.238Z,8.43
2023-04-28T12:51:59.715Z,11.80
2023-04-28T12:54:27.369Z,7.80
2023-04-28T12:56:54.931Z,8.63
2023-04-28T12:59:22.834Z,10.63
2023-04-28T13:01:50.780Z,8.68
2023-04-28T13:04:19.148Z,10.85
2023-04-28T13:06:47.114Z,9.57
2023-04-28T13:09:15.412Z,9.38
2023-04-28T13:11:43.266Z,7.10
2023-04-28T13:14:10.835Z,8.23
2023-04-28T13:16:38.337Z,9.90
2023-04-28T13:19:09.631Z,8.13
2023-04-28T13:21:39.320Z,8.98
2023-04-28T13:24:07.011Z,8.45
2023-04-28T13:26:34.461Z,7.68
2023-04-28T13:29:02.483Z,8.15
2023-04-28T13:31:30.565Z,8.52
2023-04-28T13:33:59.378Z,10.27
2023-04-28T13:36:27.037Z,8.73
2023-04-28T13:38:54.810Z,11.07
2023-04-28T13:41:22.417Z,7.00
2023-04-28T13:43:49.919Z,9.15
2023-04-28T13:46:17.576Z,9.65
2023-04-28T13:48:44.982Z,8.23
2023-04-28T13:51:12.560Z,8.70
2023-04-28T13:53:39.977Z,9.40
2023-04-28T13:56:07.736Z,10.35
2023-04-28T13:58:35.930Z,11.52
2023-04-28T14:01:04.498Z,8.32
2023-04-28T14:03:32.018Z,8.93
2023-04-28T14:05:59.996Z,9.45
2023-04-28T14:08:28.029Z,10.82
2023-04-28T14:10:55.712Z,10.68
2023-04-28T14:13:24.700Z,9.93
2023-04-28T14:15:59.016Z,12.75
2023-04-28T14:18:26.866Z,7.20
2023-04-28T14:20:54.718Z,9.07
2023-04-28T14:23:22.784Z,9.25
2023-04-28T14:25:50.521Z,10.30
2023-04-28T14:28:17.893Z,11.50
2023-04-28T14:30:45.931Z,15.13
2023-04-28T14:33:13.501Z,8.95
2023-04-28T14:35:41.601Z,7.18
2023-04-28T14:38:09.211Z,8.52
2023-04-28T14:40:36.630Z,11.52
2023-04-28T14:43:04.046Z,12.15
2023-04-28T14:45:31.741Z,9.50
2023-04-28T14:47:59.198Z,10.38
2023-04-28T14:50:26.693Z,8.85
2023-04-28T14:52:54.101Z,10.55
2023-04-28T14:55:21.512Z,13.05
2023-04-28T14:57:48.858Z,10.10
2023-04-28T15:00:16.495Z,10.43
2023-04-28T15:02:43.959Z,10.55
2023-04-28T15:05:11.740Z,10.98
2023-04-28T15:07:40.154Z,10.88
2023-04-28T15:10:07.761Z,9.32
2023-04-28T15:12:35.208Z,11.68
2023-04-28T15:15:02.661Z,7.45
2023-04-28T15:17:30.136Z,7.47
2023-04-28T15:19:57.597Z,9.23
2023-04-28T15:22:25.060Z,11.98
2023-04-28T15:24:52.836Z,9.95
2023-04-28T15:27:20.685Z,7.55
2023-04-28T15:29:48.011Z,11.48
2023-04-28T15:32:16.047Z,10.80
2023-04-28T15:34:43.573Z,11.18
2023-04-28T15:37:31.274Z,9.82
2023-04-28T15:39:58.706Z,9.52
2023-04-28T15:42:26.130Z,11.27
2023-04-28T15:44:54.557Z,11.70
2023-04-28T15:47:22.075Z,8.95
2023-04-28T15:49:50.396Z,13.32
2023-04-28T15:52:18.267Z,6.13
2023-04-28T15:54:46.662Z,9.57
2023-04-28T15:57:14.084Z,9.48
2023-04-28T15:59:41.585Z,12.02
2023-04-28T16:02:08.959Z,10.75
2023-04-28T16:04:36.694Z,8.43
2023-04-28T16:07:04.463Z,9.98
2023-04-28T16:09:32.562Z,11.75
2023-04-28T16:12:01.128Z,12.68
2023-04-28T16:14:28.698Z,8.93
2023-04-28T16:16:56.105Z,9.80
2023-04-28T16:19:25.495Z,8.77
2023-04-28T16:21:53.496Z,8.05
2023-04-28T16:24:22.472Z,9.73
2023-04-28T16:26:50.046Z,10.05
2023-04-28T16:29:17.489Z,10.18
2023-04-28T16:31:45.740Z,7.03
2023-04-28T16:34:13.474Z,11.73
2023-04-28T16:36:41.519Z,11.68
2023-04-28T16:39:09.613Z,9.10
2023-04-28T16:41:37.697Z,11.63
2023-04-28T16:44:05.044Z,9.43
2023-04-28T16:46:33.054Z,9.45
2023-04-28T16:49:00.702Z,8.75
2023-04-28T16:51:28.456Z,6.85
2023-04-28T16:53:55.886Z,6.10
2023-04-28T16:56:23.275Z,10.48
2023-04-28T16:58:50.929Z,10.80
2023-04-28T17:01:18.498Z,8.00
2023-04-28T17:03:46.308Z,6.88
2023-04-28T17:06:13.919Z,8.27
2023-04-28T17:08:42.256Z,10.60
2023-04-28T17:11:09.688Z,10.32
2023-04-28T17:13:37.650Z,16.98
2023-04-28T17:16:05.727Z,8.02
2023-04-28T17:18:33.240Z,9.68
2023-04-28T17:21:00.690Z,11.27
2023-04-28T17:23:28.254Z,8.57
2023-04-28T17:25:56.554Z,6.85
2023-04-28T17:28:25.528Z,12.23
2023-04-28T17:30:55.022Z,11.13
2023-04-28T17:33:22.559Z,13.27
2023-04-28T17:35:50.150Z,13.27
2023-04-28T17:38:17.614Z,8.40
2023-04-28T17:40:48.620Z,8.93
2023-04-28T17:43:16.943Z,9.38
2023-04-28T17:45:44.438Z,12.40
2023-04-28T17:48:12.909Z,11.38
2023-04-28T17:50:40.426Z,12.73
2023-04-28T17:53:07.939Z,12.98
2023-04-28T17:55:35.322Z,9.27
2023-04-28T17:58:02.894Z,14.13
2023-04-28T18:00:30.292Z,10.43
2023-04-28T18:02:59.041Z,10.27
2023-04-28T18:05:27.057Z,10.27
2023-04-28T18:07:54.559Z,11.57
2023-04-28T18:10:22.114Z,9.88
2023-04-28T18:12:51.550Z,10.57
2023-04-28T18:15:20.516Z,12.52
2023-04-28T18:17:47.953Z,11.27
2023-04-28T18:20:15.592Z,11.45
2023-04-28T18:22:43.246Z,13.23
2023-04-28T18:25:10.739Z,13.75
2023-04-28T18:27:38.185Z,11.55
2023-04-28T18:30:05.887Z,11.82
2023-04-28T18:32:34.111Z,11.90
2023-04-28T18:35:02.054Z,13.30
2023-04-28T18:37:30.147Z,17.55
2023-04-28T18:39:57.911Z,11.63
2023-04-28T18:42:27.473Z,11.05
2023-04-28T18:44:56.936Z,12.63
2023-04-28T18:47:24.596Z,14.75
2023-04-28T18:49:52.800Z,12.05
2023-04-28T18:52:20.358Z,14.90
2023-04-28T18:54:47.841Z,15.68
2023-04-28T18:57:15.488Z,16.08
2023-04-28T18:59:43.047Z,15.35
2023-04-28T19:02:10.696Z,17.00
2023-04-28T19:04:42.289Z,14.68
2023-04-28T19:07:10.037Z,15.32
2023-04-28T19:09:37.560Z,13.73
2023-04-28T19:12:05.056Z,17.58
2023-04-28T19:14:33.328Z,15.18
2023-04-28T19:17:00.747Z,17.20
2023-04-28T19:19:28.420Z,18.70
2023-04-28T19:21:56.170Z,17.15
2023-04-28T19:24:23.674Z,22.10
2023-04-28T19:26:51.875Z,18.65
2023-04-28T19:29:20.180Z,17.60
2023-04-28T19:31:49.113Z,16.38
2023-04-28T19:34:16.520Z,20.27
2023-04-28T19:36:44.048Z,17.55
2023-04-28T19:39:11.560Z,17.02
2023-04-28T19:41:39.035Z,16.42
2023-04-28T19:44:06.639Z,20.85
2023-04-28T19:46:34.270Z,21.52
2023-04-28T19:49:01.768Z,17.98
2023-04-28T19:51:29.244Z,20.70
2023-04-28T19:53:56.761Z,18.13
2023-04-28T19:56:24.780Z,18.00
2023-04-28T19:58:52.168Z,15.50
2023-04-28T20:01:19.858Z,19.58
2023-04-28T20:03:47.472Z,20.73
2023-04-28T20:06:18.050Z,17.98
2023-04-28T20:08:45.923Z,18.30
2023-04-28T20:11:13.333Z,16.90
2023-04-28T20:13:40.830Z,19.08
2023-04-28T20:16:08.571Z,17.45
2023-04-28T20:18:37.192Z,22.35
2023-04-28T20:21:04.674Z,19.13
2023-04-28T20:23:32.277Z,16.42
2023-04-28T20:26:00.206Z,16.60
2023-04-28T20:28:27.769Z,19.83
2023-04-28T20:30:55.219Z,18.15
2023-04-28T20:33:22.777Z,17.67
2023-04-28T20:35:50.156Z,16.25
2023-04-28T20:38:19.805Z,18.63
2023-04-28T20:40:47.855Z,16.25
2023-04-28T20:43:15.352Z,16.10
2023-04-28T20:45:42.866Z,17.67
2023-04-28T20:48:10.854Z,22.23
2023-04-28T20:50:39.562Z,16.55
2023-04-28T20:53:07.679Z,23.75
2023-04-28T20:55:35.226Z,22.40
2023-04-28T20:58:02.840Z,19.83
2023-04-28T21:00:30.380Z,21.65
2023-04-28T21:02:58.358Z,22.20
2023-04-28T21:05:25.914Z,20.45
2023-04-28T21:07:53.318Z,19.95
2023-04-28T21:10:20.935Z,18.70
2023-04-28T21:12:48.915Z,21.20
2023-04-28T21:15:16.338Z,21.15
2023-04-28T21:17:43.968Z,24.05
2023-04-28T21:20:12.042Z,22.70
2023-04-28T21:22:39.515Z,22.70
2023-04-28T21:25:08.434Z,18.95
2023-04-28T21:27:35.945Z,24.15
2023-04-28T21:30:03.645Z,26.08
2023-04-28T21:32:31.364Z,23.13
2023-04-28T21:34:58.776Z,19.98
2023-04-28T21:37:26.902Z,22.67
2023-04-28T21:39:57.998Z,19.27
2023-04-28T21:42:25.916Z,23.63
2023-04-28T21:44:53.261Z,20.17
2023-04-28T21:47:21.197Z,21.52
2023-04-28T21:49:48.724Z,21.13
2023-04-28T21:52:16.659Z,21.38
2023-04-28T21:54:44.094Z,21.65
2023-04-28T21:57:11.720Z,22.30
2023-04-28T21:59:39.274Z,25.98
2023-04-28T22:02:06.977Z,23.20
2023-04-28T22:04:34.776Z,24.23
2023-04-28T22:07:02.586Z,24.13
2023-04-28T22:09:30.251Z,21.10
2023-04-28T22:11:57.763Z,22.20
2023-04-28T22:14:39.519Z,22.80
2023-04-28T22:17:08.231Z,24.65
2023-04-28T22:19:35.845Z,23.92
2023-04-28T22:22:03.255Z,24.00
2023-04-28T22:24:30.909Z,24.25
2023-04-28T22:26:58.313Z,22.70
2023-04-28T22:29:26.242Z,26.08
2023-04-28T22:31:53.720Z,21.63
2023-04-28T22:34:22.142Z,24.45
2023-04-28T22:36:49.665Z,24.35
2023-04-28T22:39:17.085Z,25.17
2023-04-28T22:41:44.792Z,27.70
2023-04-28T22:44:12.142Z,26.13
2023-04-28T22:46:39.874Z,29.40
2023-04-28T22:49:07.816Z,26.23
2023-04-28T22:51:35.694Z,23.05
2023-04-28T22:54:03.417Z,24.75
2023-04-28T22:56:30.970Z,27.27
2023-04-28T22:58:58.501Z,22.40
2023-04-28T23:01:26.051Z,24.38
2023-04-28T23:03:53.588Z,24.50
2023-04-28T23:06:21.057Z,27.00
2023-04-28T23:08:48.513Z,26.85
2023-04-28T23:11:15.974Z,24.80
2023-04-28T23:13:43.435Z,26.63
2023-04-28T23:16:10.863Z,26.50
2023-04-28T23:18:38.348Z,24.98
2023-04-28T23:21:06.322Z,32.45
2023-04-28T23:23:33.818Z,31.63
2023-04-28T23:26:01.890Z,26.38
2023-04-28T23:28:29.324Z,31.25
2023-04-28T23:30:56.712Z,30.98
2023-04-28T23:33:24.144Z,27.92
2023-04-28T23:35:51.828Z,28.30
2023-04-28T23:38:19.300Z,29.40
2023-04-28T23:40:46.971Z,28.00
2023-04-28T23:43:14.685Z,30.27
2023-04-28T23:45:42.667Z,29.95
2023-04-28T23:48:10.268Z,29.85
2023-04-28T23:50:37.653Z,30.45
2023-04-28T23:53:05.460Z,30.67
2023-04-28T23:55:32.872Z,29.63
2023-04-28T23:58:00.548Z,32.28
